sensor_id;sensor_type;location;lat;lon;timestamp;pressure;altitude;pressure_sealevel;temperature;humidity
7109;BME280;29079;41.930;25.558;2023-04-25T00:01:53;98967.94;;;13.52;100.00
7109;BME280;29079;41.930;25.558;2023-04-25T00:04:26;98970.94;;;13.65;98.85
7109;BME280;29079;41.930;25.558;2023-04-25T00:07:01;98960.88;;;13.59;99.55
7109;BME280;29079;41.930;25.558;2023-04-25T00:09:34;98956.56;;;13.58;100.00
7109;BME280;29079;41.930;25.558;2023-04-25T00:12:08;98949.50;;;13.57;100.00
7109;BME280;29079;41.930;25.558;2023-04-25T00:14:42;98946.16;;;13.38;100.00
7109;BME280;29079;41.930;25.558;2023-04-25T00:17:17;98935.63;;;13.45;100.00
7109;BME280;29079;41.930;25.558;2023-04-25T00:19:50;98942.84;;;14.09;95.58
7109;BME280;29079;41.930;25.558;2023-04-25T00:22:23;98938.78;;;13.57;99.54
7109;BME280;29079;41.930;25.558;2023-04-25T00:24:57;98932.28;;;13.35;100.00
7109;BME280;29079;41.930;25.558;2023-04-25T00:27:31;98935.41;;;13.71;96.75
7109;BME280;29079;41.930;25.558;2023-04-25T00:30:07;98919.50;;;14.18;94.86
7109;BME280;29079;41.930;25.558;2023-04-25T00:32:40;98912.75;;;14.61;91.24
7109;BME280;29079;41.930;25.558;2023-04-25T00:35:13;98907.53;;;14.60;89.59
7109;BME280;29079;41.930;25.558;2023-04-25T00:37:46;98907.50;;;14.37;92.01
7109;BME280;29079;41.930;25.558;2023-04-25T00:40:19;98899.84;;;14.25;93.24
7109;BME280;29079;41.930;25.558;2023-04-25T00:42:52;98905.66;;;13.98;94.41
7109;BME280;29079;41.930;25.558;2023-04-25T00:45:28;98901.19;;;13.73;97.35
7109;BME280;29079;41.930;25.558;2023-04-25T00:48:01;98898.28;;;13.35;100.00
7109;BME280;29079;41.930;25.558;2023-04-25T00:50:35;98891.22;;;13.43;100.00
7109;BME280;29079;41.930;25.558;2023-04-25T00:53:09;98890.19;;;13.60;98.19
7109;BME280;29079;41.930;25.558;2023-04-25T00:55:42;98886.50;;;13.61;98.80
7109;BME280;29079;41.930;25.558;2023-04-25T00:58:16;98875.31;;;13.49;99.01
7109;BME280;29079;41.930;25.558;2023-04-25T01:00:51;98871.41;;;13.68;97.75
7109;BME280;29079;41.930;25.558;2023-04-25T01:03:24;98876.41;;;14.11;95.13
7109;BME280;29079;41.930;25.558;2023-04-25T01:06:00;98871.28;;;13.45;99.65
7109;BME280;29079;41.930;25.558;2023-04-25T01:08:34;98865.44;;;13.17;100.00
7109;BME280;29079;41.930;25.558;2023-04-25T01:11:08;98868.28;;;13.48;100.00
7109;BME280;29079;41.930;25.558;2023-04-25T01:13:41;98870.28;;;13.94;95.80
7109;BME280;29079;41.930;25.558;2023-04-25T01:16:15;98874.75;;;14.10;95.55
7109;BME280;29079;41.930;25.558;2023-04-25T01:18:49;98873.47;;;13.50;99.78
7109;BME280;29079;41.930;25.558;2023-04-25T01:21:24;98869.44;;;13.29;100.00
7109;BME280;29079;41.930;25.558;2023-04-25T01:23:59;98849.06;;;13.12;100.00
7109;BME280;29079;41.930;25.558;2023-04-25T01:26:33;98846.81;;;13.48;100.00
7109;BME280;29079;41.930;25.558;2023-04-25T01:29:06;98851.81;;;13.60;99.48
7109;BME280;29079;41.930;25.558;2023-04-25T01:31:40;98840.66;;;13.06;100.00
7109;BME280;29079;41.930;25.558;2023-04-25T01:34:13;98833.97;;;13.02;100.00
7109;BME280;29079;41.930;25.558;2023-04-25T01:36:48;98822.88;;;13.47;99.87
7109;BME280;29079;41.930;25.558;2023-04-25T01:39:21;98839.16;;;13.85;96.29
7109;BME280;29079;41.930;25.558;2023-04-25T01:41:54;98836.28;;;13.95;95.60
7109;BME280;29079;41.930;25.558;2023-04-25T01:44:28;98843.41;;;13.71;97.66
7109;BME280;29079;41.930;25.558;2023-04-25T01:47:01;98845.31;;;13.37;99.98
7109;BME280;29079;41.930;25.558;2023-04-25T01:49:34;98842.16;;;13.26;99.95
7109;BME280;29079;41.930;25.558;2023-04-25T01:52:09;98835.78;;;13.27;100.00
7109;BME280;29079;41.930;25.558;2023-04-25T01:54:42;98836.09;;;13.48;98.53
7109;BME280;29079;41.930;25.558;2023-04-25T01:57:16;98825.53;;;13.55;98.93
7109;BME280;29079;41.930;25.558;2023-04-25T01:59:49;98830.63;;;13.81;96.52
7109;BME280;29079;41.930;25.558;2023-04-25T02:02:22;98832.19;;;13.67;97.30
7109;BME280;29079;41.930;25.558;2023-04-25T02:04:55;98816.03;;;13.19;100.00
7109;BME280;29079;41.930;25.558;2023-04-25T02:07:30;98822.06;;;13.21;99.33
7109;BME280;29079;41.930;25.558;2023-04-25T02:10:03;98819.75;;;13.10;99.12
7109;BME280;29079;41.930;25.558;2023-04-25T02:12:36;98818.59;;;12.96;98.62
7109;BME280;29079;41.930;25.558;2023-04-25T02:15:09;98821.94;;;12.98;97.88
7109;BME280;29079;41.930;25.558;2023-04-25T02:17:43;98822.25;;;12.95;98.19
7109;BME280;29079;41.930;25.558;2023-04-25T02:20:16;98820.25;;;12.81;96.82
7109;BME280;29079;41.930;25.558;2023-04-25T02:22:51;98821.22;;;13.13;93.41
7109;BME280;29079;41.930;25.558;2023-04-25T02:25:24;98809.88;;;13.11;92.87
7109;BME280;29079;41.930;25.558;2023-04-25T02:27:57;98810.97;;;13.33;92.13
7109;BME280;29079;41.930;25.558;2023-04-25T02:30:30;98816.25;;;12.85;92.54
7109;BME280;29079;41.930;25.558;2023-04-25T02:33:03;98802.72;;;12.70;91.01
7109;BME280;29079;41.930;25.558;2023-04-25T02:35:36;98800.84;;;12.95;89.57
7109;BME280;29079;41.930;25.558;2023-04-25T02:38:11;98796.84;;;12.83;90.56
7109;BME280;29079;41.930;25.558;2023-04-25T02:40:44;98803.69;;;13.02;88.74
7109;BME280;29079;41.930;25.558;2023-04-25T02:43:17;98796.94;;;13.39;87.15
7109;BME280;29079;41.930;25.558;2023-04-25T02:45:49;98794.13;;;13.07;86.18
7109;BME280;29079;41.930;25.558;2023-04-25T02:48:22;98800.19;;;12.93;87.63
7109;BME280;29079;41.930;25.558;2023-04-25T02:50:55;98798.50;;;13.09;85.55
7109;BME280;29079;41.930;25.558;2023-04-25T02:53:30;98800.69;;;12.72;85.70
7109;BME280;29079;41.930;25.558;2023-04-25T02:56:03;98800.34;;;12.59;85.28
7109;BME280;29079;41.930;25.558;2023-04-25T02:58:36;98789.97;;;12.72;84.53
7109;BME280;29079;41.930;25.558;2023-04-25T03:01:09;98787.16;;;12.74;84.14
7109;BME280;29079;41.930;25.558;2023-04-25T03:03:42;98782.78;;;12.97;85.60
7109;BME280;29079;41.930;25.558;2023-04-25T03:06:15;98787.78;;;12.92;83.67
7109;BME280;29079;41.930;25.558;2023-04-25T03:08:49;98781.75;;;13.06;83.95
7109;BME280;29079;41.930;25.558;2023-04-25T03:11:24;98776.28;;;12.67;83.82
7109;BME280;29079;41.930;25.558;2023-04-25T03:13:57;98770.06;;;12.83;85.98
7109;BME280;29079;41.930;25.558;2023-04-25T03:16:30;98776.56;;;13.13;84.85
7109;BME280;29079;41.930;25.558;2023-04-25T03:19:03;98779.28;;;12.88;87.66
7109;BME280;29079;41.930;25.558;2023-04-25T03:21:36;98778.06;;;13.07;85.91
7109;BME280;29079;41.930;25.558;2023-04-25T03:24:11;98789.50;;;12.68;85.32
7109;BME280;29079;41.930;25.558;2023-04-25T03:26:44;98788.31;;;12.54;86.23
7109;BME280;29079;41.930;25.558;2023-04-25T03:29:17;98782.31;;;12.52;87.25
7109;BME280;29079;41.930;25.558;2023-04-25T03:31:50;98786.13;;;12.33;87.08
7109;BME280;29079;41.930;25.558;2023-04-25T03:34:23;98784.44;;;12.16;89.62
7109;BME280;29079;41.930;25.558;2023-04-25T03:36:57;98785.31;;;12.33;90.31
7109;BME280;29079;41.930;25.558;2023-04-25T03:39:31;98793.50;;;12.97;88.22
7109;BME280;29079;41.930;25.558;2023-04-25T03:42:05;98785.31;;;12.58;87.92
7109;BME280;29079;41.930;25.558;2023-04-25T03:44:38;98795.03;;;12.67;89.30
7109;BME280;29079;41.930;25.558;2023-04-25T03:47:11;98796.84;;;12.58;89.05
7109;BME280;29079;41.930;25.558;2023-04-25T03:49:44;98789.13;;;12.22;90.25
7109;BME280;29079;41.930;25.558;2023-04-25T03:52:17;98792.78;;;12.21;89.94
7109;BME280;29079;41.930;25.558;2023-04-25T03:54:51;98799.47;;;12.09;91.17
7109;BME280;29079;41.930;25.558;2023-04-25T03:57:24;98796.31;;;12.22;91.06
7109;BME280;29079;41.930;25.558;2023-04-25T03:59:57;98804.38;;;12.71;89.54
7109;BME280;29079;41.930;25.558;2023-04-25T04:02:30;98804.34;;;13.04;89.79
7109;BME280;29079;41.930;25.558;2023-04-25T04:05:04;98803.16;;;13.06;88.21
7109;BME280;29079;41.930;25.558;2023-04-25T04:07:38;98802.53;;;12.96;87.85
7109;BME280;29079;41.930;25.558;2023-04-25T04:10:15;98798.13;;;13.20;88.45
7109;BME280;29079;41.930;25.558;2023-04-25T04:12:48;98802.84;;;13.01;87.37
7109;BME280;29079;41.930;25.558;2023-04-25T04:15:21;98804.56;;;12.69;89.65
7109;BME280;29079;41.930;25.558;2023-04-25T04:17:54;98808.06;;;12.62;89.09
7109;BME280;29079;41.930;25.558;2023-04-25T04:20:28;98807.88;;;12.47;89.50
7109;BME280;29079;41.930;25.558;2023-04-25T04:23:01;98816.91;;;12.70;89.01
7109;BME280;29079;41.930;25.558;2023-04-25T04:25:36;98812.94;;;12.66;89.65
7109;BME280;29079;41.930;25.558;2023-04-25T04:28:09;98809.72;;;12.87;87.87
7109;BME280;29079;41.930;25.558;2023-04-25T04:30:42;98819.13;;;12.50;89.50
7109;BME280;29079;41.930;25.558;2023-04-25T04:33:18;98819.44;;;12.88;89.51
7109;BME280;29079;41.930;25.558;2023-04-25T04:35:51;98819.94;;;12.59;89.33
7109;BME280;29079;41.930;25.558;2023-04-25T04:38:25;98816.78;;;12.64;88.99
7109;BME280;29079;41.930;25.558;2023-04-25T04:40:59;98812.91;;;12.42;89.94
7109;BME280;29079;41.930;25.558;2023-04-25T04:43:32;98815.41;;;12.35;90.58
7109;BME280;29079;41.930;25.558;2023-04-25T04:46:05;98818.38;;;12.15;90.82
7109;BME280;29079;41.930;25.558;2023-04-25T04:48:39;98820.75;;;12.18;90.70
7109;BME280;29079;41.930;25.558;2023-04-25T04:51:12;98815.25;;;12.45;89.99
7109;BME280;29079;41.930;25.558;2023-04-25T04:53:45;98812.59;;;12.69;88.70
7109;BME280;29079;41.930;25.558;2023-04-25T04:56:19;98809.72;;;12.54;88.47
7109;BME280;29079;41.930;25.558;2023-04-25T04:58:55;98808.72;;;12.47;88.97
7109;BME280;29079;41.930;25.558;2023-04-25T05:01:28;98815.59;;;12.42;89.58
7109;BME280;29079;41.930;25.558;2023-04-25T05:04:02;98820.44;;;12.54;89.90
7109;BME280;29079;41.930;25.558;2023-04-25T05:06:35;98821.75;;;12.34;91.80
7109;BME280;29079;41.930;25.558;2023-04-25T05:09:09;98821.91;;;12.32;91.09
7109;BME280;29079;41.930;25.558;2023-04-25T05:11:43;98814.25;;;12.38;93.14
7109;BME280;29079;41.930;25.558;2023-04-25T05:14:16;98808.91;;;12.38;95.55
7109;BME280;29079;41.930;25.558;2023-04-25T05:16:49;98807.41;;;12.43;97.17
7109;BME280;29079;41.930;25.558;2023-04-25T05:19:25;98806.88;;;12.56;97.73
7109;BME280;29079;41.930;25.558;2023-04-25T05:21:58;98804.56;;;12.45;100.00
7109;BME280;29079;41.930;25.558;2023-04-25T05:24:31;98810.06;;;12.84;98.15
7109;BME280;29079;41.930;25.558;2023-04-25T05:27:06;98805.88;;;12.57;100.00
7109;BME280;29079;41.930;25.558;2023-04-25T05:29:39;98802.69;;;12.62;100.00
7109;BME280;29079;41.930;25.558;2023-04-25T05:32:12;98795.50;;;12.79;100.00
7109;BME280;29079;41.930;25.558;2023-04-25T05:34:45;98789.97;;;12.88;100.00
7109;BME280;29079;41.930;25.558;2023-04-25T05:37:18;98785.22;;;13.23;98.91
7109;BME280;29079;41.930;25.558;2023-04-25T05:39:52;98792.88;;;13.43;97.50
7109;BME280;29079;41.930;25.558;2023-04-25T05:42:26;98802.34;;;13.14;98.83
7109;BME280;29079;41.930;25.558;2023-04-25T05:44:59;98808.50;;;13.23;98.66
7109;BME280;29079;41.930;25.558;2023-04-25T05:47:32;98800.47;;;13.15;98.10
7109;BME280;29079;41.930;25.558;2023-04-25T05:50:06;98805.66;;;13.24;96.81
7109;BME280;29079;41.930;25.558;2023-04-25T05:52:40;98805.31;;;13.36;96.61
7109;BME280;29079;41.930;25.558;2023-04-25T05:55:13;98805.91;;;13.63;94.51
7109;BME280;29079;41.930;25.558;2023-04-25T05:57:48;98800.63;;;13.78;91.91
7109;BME280;29079;41.930;25.558;2023-04-25T06:00:22;98799.72;;;13.93;91.57
7109;BME280;29079;41.930;25.558;2023-04-25T06:02:55;98789.84;;;14.40;87.56
7109;BME280;29079;41.930;25.558;2023-04-25T06:05:28;98784.25;;;14.50;88.06
7109;BME280;29079;41.930;25.558;2023-04-25T06:08:02;98795.50;;;14.54;87.52
7109;BME280;29079;41.930;25.558;2023-04-25T06:10:35;98794.72;;;14.45;87.62
7109;BME280;29079;41.930;25.558;2023-04-25T06:13:10;98796.31;;;14.54;85.86
7109;BME280;29079;41.930;25.558;2023-04-25T06:15:43;98794.25;;;14.10;87.47
7109;BME280;29079;41.930;25.558;2023-04-25T06:18:16;98788.25;;;14.31;86.57
7109;BME280;29079;41.930;25.558;2023-04-25T06:20:49;98786.91;;;14.35;86.31
7109;BME280;29079;41.930;25.558;2023-04-25T06:23:22;98789.84;;;14.40;85.95
7109;BME280;29079;41.930;25.558;2023-04-25T06:25:55;98793.66;;;14.23;85.66
7109;BME280;29079;41.930;25.558;2023-04-25T06:28:30;98790.47;;;14.27;85.37
7109;BME280;29079;41.930;25.558;2023-04-25T06:31:03;98791.25;;;14.36;84.89
7109;BME280;29079;41.930;25.558;2023-04-25T06:33:36;98797.81;;;14.02;86.05
7109;BME280;29079;41.930;25.558;2023-04-25T06:36:09;98792.13;;;14.28;84.98
7109;BME280;29079;41.930;25.558;2023-04-25T06:38:42;98800.22;;;13.97;86.48
7109;BME280;29079;41.930;25.558;2023-04-25T06:41:15;98799.16;;;14.06;85.51
7109;BME280;29079;41.930;25.558;2023-04-25T06:43:50;98802.00;;;14.05;84.14
7109;BME280;29079;41.930;25.558;2023-04-25T06:46:23;98804.91;;;13.95;83.29
7109;BME280;29079;41.930;25.558;2023-04-25T06:48:56;98802.84;;;14.05;84.03
7109;BME280;29079;41.930;25.558;2023-04-25T06:51:29;98799.75;;;14.17;81.96
7109;BME280;29079;41.930;25.558;2023-04-25T06:54:02;98803.44;;;14.16;80.97
7109;BME280;29079;41.930;25.558;2023-04-25T06:56:37;98804.91;;;14.50;79.97
7109;BME280;29079;41.930;25.558;2023-04-25T06:59:11;98808.59;;;14.49;79.20
7109;BME280;29079;41.930;25.558;2023-04-25T07:01:45;98807.19;;;14.06;78.22
7109;BME280;29079;41.930;25.558;2023-04-25T07:04:18;98809.53;;;14.09;78.89
7109;BME280;29079;41.930;25.558;2023-04-25T07:06:52;98803.91;;;14.27;81.07
7109;BME280;29079;41.930;25.558;2023-04-25T07:09:26;98797.38;;;14.22;78.67
7109;BME280;29079;41.930;25.558;2023-04-25T07:11:59;98787.47;;;14.22;78.74
7109;BME280;29079;41.930;25.558;2023-04-25T07:14:34;98779.72;;;14.51;80.49
7109;BME280;29079;41.930;25.558;2023-04-25T07:17:07;98782.31;;;14.67;79.06
7109;BME280;29079;41.930;25.558;2023-04-25T07:19:40;98785.75;;;14.76;78.83
7109;BME280;29079;41.930;25.558;2023-04-25T07:22:13;98788.38;;;14.61;78.45
7109;BME280;29079;41.930;25.558;2023-04-25T07:24:47;98792.09;;;14.98;78.51
7109;BME280;29079;41.930;25.558;2023-04-25T07:27:20;98788.53;;;14.83;78.36
7109;BME280;29079;41.930;25.558;2023-04-25T07:29:55;98784.25;;;14.73;79.87
7109;BME280;29079;41.930;25.558;2023-04-25T07:32:28;98779.41;;;14.92;79.45
7109;BME280;29079;41.930;25.558;2023-04-25T07:35:02;98772.09;;;15.15;79.95
7109;BME280;29079;41.930;25.558;2023-04-25T07:37:35;98764.88;;;15.31;79.46
7109;BME280;29079;41.930;25.558;2023-04-25T07:40:08;98760.72;;;15.13;82.17
7109;BME280;29079;41.930;25.558;2023-04-25T07:42:42;98754.59;;;15.05;81.28
7109;BME280;29079;41.930;25.558;2023-04-25T07:45:16;98742.72;;;15.44;79.96
7109;BME280;29079;41.930;25.558;2023-04-25T07:47:49;98743.91;;;15.56;79.59
7109;BME280;29079;41.930;25.558;2023-04-25T07:50:22;98742.72;;;15.59;79.67
7109;BME280;29079;41.930;25.558;2023-04-25T07:52:56;98755.88;;;15.69;80.90
7109;BME280;29079;41.930;25.558;2023-04-25T07:55:28;98755.19;;;15.66;81.06
7109;BME280;29079;41.930;25.558;2023-04-25T07:58:03;98753.88;;;15.92;79.34
7109;BME280;29079;41.930;25.558;2023-04-25T08:00:37;98760.94;;;15.93;78.21
7109;BME280;29079;41.930;25.558;2023-04-25T08:03:10;98763.81;;;16.13;78.13
7109;BME280;29079;41.930;25.558;2023-04-25T08:05:44;98764.00;;;16.27;77.63
7109;BME280;29079;41.930;25.558;2023-04-25T08:08:17;98765.72;;;16.34;77.24
7109;BME280;29079;41.930;25.558;2023-04-25T08:10:50;98756.78;;;15.91;78.58
7109;BME280;29079;41.930;25.558;2023-04-25T08:13:23;98757.91;;;15.81;78.84
7109;BME280;29079;41.930;25.558;2023-04-25T08:15:58;98759.69;;;16.11;77.51
7109;BME280;29079;41.930;25.558;2023-04-25T08:18:31;98761.00;;;16.00;75.75
7109;BME280;29079;41.930;25.558;2023-04-25T08:21:04;98762.44;;;16.17;75.77
7109;BME280;29079;41.930;25.558;2023-04-25T08:23:38;98759.56;;;16.41;74.57
7109;BME280;29079;41.930;25.558;2023-04-25T08:26:11;98758.66;;;16.55;74.22
7109;BME280;29079;41.930;25.558;2023-04-25T08:28:44;98759.81;;;16.67;73.85
7109;BME280;29079;41.930;25.558;2023-04-25T08:31:19;98757.53;;;16.93;73.14
7109;BME280;29079;41.930;25.558;2023-04-25T08:33:52;98760.47;;;16.98;73.39
7109;BME280;29079;41.930;25.558;2023-04-25T08:36:25;98762.50;;;16.67;73.87
7109;BME280;29079;41.930;25.558;2023-04-25T08:39:10;98764.69;;;16.85;73.61
7109;BME280;29079;41.930;25.558;2023-04-25T08:41:43;98762.03;;;17.14;73.35
7109;BME280;29079;41.930;25.558;2023-04-25T08:44:17;98759.84;;;17.31;72.53
7109;BME280;29079;41.930;25.558;2023-04-25T08:46:51;98764.47;;;17.37;70.95
7109;BME280;29079;41.930;25.558;2023-04-25T08:49:26;98759.53;;;17.47;70.73
7109;BME280;29079;41.930;25.558;2023-04-25T08:51:59;98756.66;;;17.55;69.86
7109;BME280;29079;41.930;25.558;2023-04-25T08:54:33;98754.59;;;17.57;70.15
7109;BME280;29079;41.930;25.558;2023-04-25T08:57:10;98757.06;;;17.52;68.80
7109;BME280;29079;41.930;25.558;2023-04-25T08:59:44;98756.22;;;17.52;69.26
7109;BME280;29079;41.930;25.558;2023-04-25T09:02:19;98757.59;;;17.34;67.98
7109;BME280;29079;41.930;25.558;2023-04-25T09:04:54;98751.75;;;17.31;67.41
7109;BME280;29079;41.930;25.558;2023-04-25T09:07:27;98751.91;;;17.64;66.64
7109;BME280;29079;41.930;25.558;2023-04-25T09:10:00;98748.22;;;17.72;67.28
7109;BME280;29079;41.930;25.558;2023-04-25T09:12:35;98745.94;;;17.69;66.88
7109;BME280;29079;41.930;25.558;2023-04-25T09:15:09;98733.69;;;17.73;66.78
7109;BME280;29079;41.930;25.558;2023-04-25T09:17:44;98738.28;;;17.86;66.23
7109;BME280;29079;41.930;25.558;2023-04-25T09:20:17;98728.91;;;17.68;67.42
7109;BME280;29079;41.930;25.558;2023-04-25T09:23:00;98731.72;;;17.95;67.85
7109;BME280;29079;41.930;25.558;2023-04-25T09:25:34;98721.16;;;18.07;66.44
7109;BME280;29079;41.930;25.558;2023-04-25T09:28:08;98729.03;;;18.02;67.35
7109;BME280;29079;41.930;25.558;2023-04-25T09:30:41;98715.44;;;17.75;68.27
7109;BME280;29079;41.930;25.558;2023-04-25T09:33:16;98717.81;;;17.98;66.21
7109;BME280;29079;41.930;25.558;2023-04-25T09:35:49;98712.53;;;17.83;67.29
7109;BME280;29079;41.930;25.558;2023-04-25T09:38:26;98706.94;;;17.78;66.95
7109;BME280;29079;41.930;25.558;2023-04-25T09:41:00;98704.84;;;17.73;67.90
7109;BME280;29079;41.930;25.558;2023-04-25T09:43:33;98701.50;;;17.65;67.98
7109;BME280;29079;41.930;25.558;2023-04-25T09:46:08;98700.94;;;17.89;67.88
7109;BME280;29079;41.930;25.558;2023-04-25T09:48:43;98694.75;;;17.96;67.34
7109;BME280;29079;41.930;25.558;2023-04-25T09:51:21;98699.97;;;18.10;66.52
7109;BME280;29079;41.930;25.558;2023-04-25T09:53:58;98696.25;;;18.18;66.13
7109;BME280;29079;41.930;25.558;2023-04-25T09:56:31;98695.00;;;18.27;64.34
7109;BME280;29079;41.930;25.558;2023-04-25T09:59:08;98689.59;;;18.21;65.17
7109;BME280;29079;41.930;25.558;2023-04-25T10:01:41;98691.88;;;18.10;65.50
7109;BME280;29079;41.930;25.558;2023-04-25T10:04:18;98698.31;;;18.03;66.78
7109;BME280;29079;41.930;25.558;2023-04-25T10:06:52;98708.69;;;18.06;64.89
7109;BME280;29079;41.930;25.558;2023-04-25T10:09:26;98719.66;;;17.91;64.11
7109;BME280;29079;41.930;25.558;2023-04-25T10:12:03;98720.19;;;17.66;64.14
7109;BME280;29079;41.930;25.558;2023-04-25T10:14:36;98719.75;;;17.63;69.62
7109;BME280;29079;41.930;25.558;2023-04-25T10:17:10;98713.03;;;17.38;75.04
7109;BME280;29079;41.930;25.558;2023-04-25T10:19:45;98713.72;;;17.12;80.49
7109;BME280;29079;41.930;25.558;2023-04-25T10:22:20;98709.91;;;17.00;83.86
7109;BME280;29079;41.930;25.558;2023-04-25T10:24:56;98712.13;;;16.90;86.42
7109;BME280;29079;41.930;25.558;2023-04-25T10:27:29;98710.53;;;16.74;83.77
7109;BME280;29079;41.930;25.558;2023-04-25T10:30:03;98726.09;;;16.50;85.71
7109;BME280;29079;41.930;25.558;2023-04-25T10:32:37;98727.50;;;16.24;89.10
7109;BME280;29079;41.930;25.558;2023-04-25T10:35:13;98721.34;;;16.09;94.91
7109;BME280;29079;41.930;25.558;2023-04-25T10:37:57;98722.69;;;15.98;95.38
7109;BME280;29079;41.930;25.558;2023-04-25T10:40:30;98717.56;;;16.25;93.55
7109;BME280;29079;41.930;25.558;2023-04-25T10:45:55;98721.09;;;15.67;96.99
7109;BME280;29079;41.930;25.558;2023-04-25T10:48:29;98725.91;;;15.57;98.58
7109;BME280;29079;41.930;25.558;2023-04-25T10:51:10;98725.19;;;15.48;99.82
7109;BME280;29079;41.930;25.558;2023-04-25T10:53:44;98727.13;;;15.39;99.94
7109;BME280;29079;41.930;25.558;2023-04-25T10:56:18;98734.22;;;15.25;93.88
7109;BME280;29079;41.930;25.558;2023-04-25T10:58:51;98728.16;;;15.23;95.56
7109;BME280;29079;41.930;25.558;2023-04-25T11:01:24;98731.50;;;14.95;96.66
7109;BME280;29079;41.930;25.558;2023-04-25T11:03:57;98723.50;;;14.72;98.16
7109;BME280;29079;41.930;25.558;2023-04-25T11:06:34;98722.31;;;14.52;99.58
7109;BME280;29079;41.930;25.558;2023-04-25T11:09:10;98712.59;;;14.51;98.20
7109;BME280;29079;41.930;25.558;2023-04-25T11:11:53;98705.75;;;14.48;99.76
7109;BME280;29079;41.930;25.558;2023-04-25T11:14:26;98690.47;;;14.49;100.00
7109;BME280;29079;41.930;25.558;2023-04-25T11:16:59;98660.22;;;14.55;100.00
7109;BME280;29079;41.930;25.558;2023-04-25T11:19:33;98643.50;;;14.97;100.00
7109;BME280;29079;41.930;25.558;2023-04-25T11:22:07;98626.09;;;15.45;100.00
7109;BME280;29079;41.930;25.558;2023-04-25T11:24:42;98606.91;;;15.70;99.67
7109;BME280;29079;41.930;25.558;2023-04-25T11:27:15;98607.16;;;15.75;100.00
7109;BME280;29079;41.930;25.558;2023-04-25T11:29:48;98612.00;;;15.43;100.00
7109;BME280;29079;41.930;25.558;2023-04-25T11:32:23;98619.06;;;15.29;100.00
7109;BME280;29079;41.930;25.558;2023-04-25T11:34:58;98616.00;;;15.47;100.00
7109;BME280;29079;41.930;25.558;2023-04-25T11:37:33;98605.47;;;15.52;95.20
7109;BME280;29079;41.930;25.558;2023-04-25T11:40:06;98608.13;;;15.89;94.67
7109;BME280;29079;41.930;25.558;2023-04-25T11:42:52;98615.38;;;16.10;94.47
7109;BME280;29079;41.930;25.558;2023-04-25T11:45:26;98615.94;;;16.27;95.56
7109;BME280;29079;41.930;25.558;2023-04-25T11:47:59;98615.38;;;16.38;94.75
7109;BME280;29079;41.930;25.558;2023-04-25T11:50:34;98612.50;;;16.40;89.35
7109;BME280;29079;41.930;25.558;2023-04-25T11:53:07;98613.81;;;16.50;87.79
7109;BME280;29079;41.930;25.558;2023-04-25T11:55:40;98617.06;;;16.74;85.39
7109;BME280;29079;41.930;25.558;2023-04-25T11:58:17;98614.28;;;16.61;81.37
7109;BME280;29079;41.930;25.558;2023-04-25T12:00:51;98604.53;;;16.88;79.17
7109;BME280;29079;41.930;25.558;2023-04-25T12:03:24;98592.53;;;16.91;75.21
7109;BME280;29079;41.930;25.558;2023-04-25T12:06:02;98580.94;;;16.97;75.65
7109;BME280;29079;41.930;25.558;2023-04-25T12:08:37;98571.69;;;17.19;78.04
7109;BME280;29079;41.930;25.558;2023-04-25T12:11:20;98563.00;;;17.24;77.58
7109;BME280;29079;41.930;25.558;2023-04-25T12:13:54;98563.00;;;17.24;76.93
7109;BME280;29079;41.930;25.558;2023-04-25T12:16:27;98548.91;;;17.35;76.47
7109;BME280;29079;41.930;25.558;2023-04-25T12:19:00;98546.63;;;17.32;75.04
7109;BME280;29079;41.930;25.558;2023-04-25T12:21:35;98540.00;;;17.28;71.09
7109;BME280;29079;41.930;25.558;2023-04-25T12:24:27;98533.19;;;17.46;69.78
7109;BME280;29079;41.930;25.558;2023-04-25T12:27:01;98540.41;;;17.45;70.29
7109;BME280;29079;41.930;25.558;2023-04-25T12:29:36;98536.69;;;17.33;67.50
7109;BME280;29079;41.930;25.558;2023-04-25T12:32:20;98541.06;;;17.47;69.05
7109;BME280;29079;41.930;25.558;2023-04-25T12:34:53;98540.88;;;17.69;68.78
7109;BME280;29079;41.930;25.558;2023-04-25T12:37:28;98536.75;;;17.86;69.84
7109;BME280;29079;41.930;25.558;2023-04-25T12:40:02;98544.81;;;17.73;67.51
7109;BME280;29079;41.930;25.558;2023-04-25T12:42:35;98539.19;;;17.74;70.04
7109;BME280;29079;41.930;25.558;2023-04-25T12:45:10;98540.88;;;17.69;74.19
7109;BME280;29079;41.930;25.558;2023-04-25T12:47:42;98535.69;;;17.61;73.33
7109;BME280;29079;41.930;25.558;2023-04-25T12:50:16;98545.84;;;17.65;72.57
7109;BME280;29079;41.930;25.558;2023-04-25T12:52:49;98542.53;;;17.56;73.32
7109;BME280;29079;41.930;25.558;2023-04-25T12:55:22;98543.75;;;17.67;74.39
7109;BME280;29079;41.930;25.558;2023-04-25T12:57:55;98540.84;;;17.55;69.40
7109;BME280;29079;41.930;25.558;2023-04-25T13:00:30;98536.91;;;17.58;69.17
7109;BME280;29079;41.930;25.558;2023-04-25T13:03:03;98537.75;;;17.79;67.86
7109;BME280;29079;41.930;25.558;2023-04-25T13:05:36;98534.25;;;17.91;68.57
7109;BME280;29079;41.930;25.558;2023-04-25T13:08:09;98528.44;;;17.81;66.55
7109;BME280;29079;41.930;25.558;2023-04-25T13:10:43;98535.72;;;18.01;64.98
7109;BME280;29079;41.930;25.558;2023-04-25T13:13:17;98528.03;;;18.04;69.36
7109;BME280;29079;41.930;25.558;2023-04-25T13:15:51;98534.06;;;17.93;70.01
7109;BME280;29079;41.930;25.558;2023-04-25T13:18:23;98517.84;;;18.06;65.61
7109;BME280;29079;41.930;25.558;2023-04-25T13:20:59;98509.75;;;18.06;68.03
7109;BME280;29079;41.930;25.558;2023-04-25T13:23:32;98509.13;;;18.04;65.44
7109;BME280;29079;41.930;25.558;2023-04-25T13:26:05;98506.41;;;18.24;68.49
7109;BME280;29079;41.930;25.558;2023-04-25T13:28:38;98503.72;;;18.18;69.36
7109;BME280;29079;41.930;25.558;2023-04-25T13:31:17;98499.78;;;18.07;70.22
7109;BME280;29079;41.930;25.558;2023-04-25T13:33:50;98499.59;;;18.08;72.04
7109;BME280;29079;41.930;25.558;2023-04-25T13:36:24;98504.34;;;17.86;71.67
7109;BME280;29079;41.930;25.558;2023-04-25T13:38:57;98496.28;;;17.93;73.51